Station info - map view · info · telemetry · weather · raw · status · beacons · messages · bulletins · browse · moving · my account
Callsign, ship name or locator: Clear       
It is possible to search using wildcards (*?) after a prefix. Example: OH*
APRS station OK1VP-7 - show graphs
Map loading...
Comment: PicoAPRS by DB1NTO
Mic-E message: En route
Last status: PicoAPRS - World's smallest APRS Transceiver by DB1NTO!
Location: 49°42.68' N 13°23.11' E - locator JN69QR60FR - show map - static map
2.5 miles South bearing 172° from Plzeň, Plzeňský Kraj, Czech Republic [?]
4.1 miles West bearing 283° from Starý Plzenec, Plzeňský Kraj, Czech Republic
52.9 miles Southwest bearing 241° from Prague, Hlavní Mesto Praha, Czech Republic
80.2 miles South bearing 165° from Chemnitz, Direktionsbezirk Chemnitz, Saxony, Germany
Last position: 2020-01-24 18:09:33 EST (18h26m ago)
2020-01-25 00:09:33 CET local time at Plzeň, Czech Republic [?]
Altitude: 1220 ft
Course: 294°
Speed: 0 MPH
Last path: OK1VP-7>TY4R68-2 via WIDE1-1,WIDE2-2,qAR,OK0BPL-1,OK0BPL,T2CZECH (good)
Positions stored: 8809
Packet rate: 558 seconds between packets on average during 27351 seconds.
Stations near current position of OK1VP-7 - show more
callsign distance last heard - EST      callsign distance last heard - EST
OK1TCP1.5 miles 328°2020-01-21 03:29:58 OK1UFM-91.5 miles 330°2020-01-10 11:24:44
OK1UFM1.5 miles 331°2020-01-10 12:28:46 0K1HGV1.6 miles 116°2020-01-20 08:02:54
OK1RPL-11.8 miles 331°2020-01-25 12:34:44 438.050PL1.9 miles 308°2020-01-25 12:24:26
OK0DPL B2.1 miles 335°2020-01-25 12:31:50 OK0DPL-B2.1 miles 335°2020-01-25 12:32:00
OK0DPL-R2.1 miles 335°2020-01-25 12:33:15 OK1PJV-72.6 miles 347°2020-01-25 06:10:37
OK1RPL-32.7 miles 317°2020-01-25 12:34:48 AU5323.2 miles 245°2020-01-25 12:29:49
OK/PL-0674.1 miles 121°2020-01-04 07:55:23 438.675PL4.1 miles 121°2020-01-25 12:24:16
OK0BPL-14.2 miles 120°2020-01-25 12:24:06 OK2STF-94.4 miles 263°2020-01-24 07:39:11
OK1LN4.4 miles 338°2020-01-05 04:54:36 OK1PJV-94.4 miles 349°2020-01-22 14:53:37
OK1RPL-24.4 miles 323°2020-01-25 12:28:18 OK1JRA-104.5 miles 324°2020-01-21 08:27:23
Stations which heard OK1VP-7 directly on radio –
callsign pkts first heard - EST last heard longest (tx => rx) longest at - EST
S59DXX-2 1 2020-01-24 02:19:01 2020-01-24 02:19:01 JO70CA > JN76TM 249.4 miles 164° 2020-01-24 02:19:01
DB0LMM 1 2020-01-24 16:39:43 2020-01-24 16:39:43 JN69QR > JO61EI 120.7 miles 339° 2020-01-24 16:39:43
S55YBO-2 1 2020-01-24 02:19:03 2020-01-24 02:19:03 JO70CA > JN76TG 264.6 miles 165° 2020-01-24 02:19:03
DB0RO 1 2020-01-24 15:39:43 2020-01-24 15:39:43 JN69QR > JN49AF 241.9 miles 264° 2020-01-24 15:39:43
OK1KZE-1 30 2020-01-24 02:18:53 2020-01-24 09:48:02 JO70PC > JN79FX 39.7 miles 256° 2020-01-24 03:26:09
OK1KHL-1 2 2020-01-24 04:18:33 2020-01-24 08:34:30 JO70VD > JO80AC 10.4 miles 118° 2020-01-24 08:34:30
OK0BCA-1 12 2020-01-24 03:08:07 2020-01-24 09:10:01 JO70JD > JO70UQ 56.2 miles 47° 2020-01-24 03:08:07
OK0BBK-2 3 2020-01-24 03:12:38 2020-01-24 09:35:33 JO70EA > JO70PO 55.2 miles 45° 2020-01-24 09:35:33
OK0BAF-1 4 2020-01-24 03:41:09 2020-01-24 08:39:00 JO70UD > JN89AR 31.5 miles 154° 2020-01-24 03:41:09
OK1KID-1 2 2020-01-24 03:36:41 2020-01-24 08:40:01 JO70TD > JO70VB 9.7 miles 125° 2020-01-24 03:36:41
DB0FDA 1 2020-01-24 15:39:44 2020-01-24 15:39:44 JN69QR > JN49HU 211.9 miles 275° 2020-01-24 15:39:44
OK1HOT-2 9 2020-01-24 02:17:23 2020-01-24 09:45:33 JN79BX > JO70DB 8.0 miles 54° 2020-01-24 02:17:23
OK0BAD-2 13 2020-01-24 02:05:23 2020-01-24 10:05:03 JO70DB > JN79AS 21.1 miles 210° 2020-01-24 09:45:08
OK1RPL-1 14 2020-01-24 01:48:51 2020-01-24 12:09:33 JN69SS > JN69QR 9.6 miles 262° 2020-01-24 01:54:51
OK1DJO-3 1 2020-01-24 09:18:05 2020-01-24 09:18:05 JO70HB > JO70DB 12.1 miles 260° 2020-01-24 09:18:05
OK0BPL-1 54 2020-01-24 01:41:36 2020-01-24 18:09:33 JN69UT > JN69RQ 15.0 miles 237° 2020-01-24 10:07:32
OK0BNH-2 1 2020-01-24 09:54:33 2020-01-24 09:54:33 JN79AW > JN79DV 10.6 miles 107° 2020-01-24 09:54:33
OL7M-2 1 2020-01-24 04:22:03 2020-01-24 04:22:03 JO80BD > JO80CF 6.9 miles 37° 2020-01-24 04:22:03
OK1LPD-10 1 2020-01-24 02:28:24 2020-01-24 02:28:24 JO70EA > JN79DW 5.0 miles 186° 2020-01-24 02:28:24
OK1COM-1 21 2020-01-24 02:30:53 2020-01-24 09:42:32 JO70DA > JO70FA 6.2 miles 94° 2020-01-24 09:42:32
S5YKO-2 1 2020-01-24 02:19:04 2020-01-24 02:19:04 JO70CA > JN76LL 245.6 miles 171° 2020-01-24 02:19:04

Only position packets which were originated by the station are shown here. The range statistics show some extra long hops, because some digipeaters do not correctly add themselves to the digipeater path. Please check the raw packets.
About this site
This page shows real-time information collected from the Automatic Position Reporting System Internet network (APRS-IS). APRS is used by amateur (ham) radio operators to transmit real-time position information, weather data, telemetry and messages over the radio. A vehicle equipped with a GPS receiver, a VHF transmitter or HF transceiver and a small computer device called a tracker transmits it's location, speed and course in a small data packet, which is then received by a nearby iGate receiving site which forwards the packet on the Internet. Systems connected to the Internet can send information on the APRS-IS without a radio transmitter, or collect and display information transmitted anywhere in the world.
User guide · FAQ · Blog · Discussion group · Linking to aprs.fi · AIS sites · Service status · Database statistics · Advertising on aprs.fi · Technical details · API · Change log · Planned changes · Credits and thanks · Terms Of Service · iPhone/iPad APRS